McCarthy, Alaska
Current Conditions -  °F | °C
As of 8:53 PM on Sunday 21 Dec 2014 (Local Time) from PAGK Reporting Station
Clear Clear  
Wind Chill: -3°   Ceiling: Unl
Heat Index: -3°   Visibility: 10mi
Dew Point: -8°   Wind: 3mph
Humidity: 79%   Direction: 310°NW
Pressure: 29.55"   Gusts: NA
Location:  61.44°N, 142.91°W
Report Text: PAGK 220553Z AUTO 31003KT 10SM CLR M19/M22 A2955 RMK AO2 SLP063 T11941222 11144 21200 TSNO $
Loading
Personal Weather Stations






























Interactive Weather Map New forecast layout! Learn more

10-Day Weather Forecast

Advertisements
Track Severe Weather on mobile